Terminal Aerodrome Forecast
Issued by NWS

Home | Current Version | Previous Version | Text Only | Print | Product List | Glossary On
Versions: 1 2 3 4 5 6 7 8 9 10 11 12 13 14 15 16 17 18 19
777
FTUS41 KCAR 271949 AAC
TAFPQI
TAF AMD
KPQI 271949Z 2720/2818 17012KT P6SM OVC012
     FM280100 18007KT P6SM OVC015
     FM280400 20006KT P6SM OVC004
     FM281300 32006KT P6SM BKN020
     FM281600 33010G18KT P6SM SCT020 BKN035=

USA.gov is the U.S. government's official web portal to all federal, state and local government web resources and services.